Flight Track Log - Related Links

Times and Time Zones

All times are in EDT time to prevent confusion due to time zone crossing. See the N525AL flight status page for this flight to view local times or setup timezone preferences in your user account.

Time Position Orientation Groundspeed Altitude Reporting Facility
EDT Latitude Longitude Course Direction KTS MPH feet Rate Location/Type
Thu 06:30:08 PM 36.2617 -93.9347 92° East 285 328 10,600  Level Memphis Center
Thu 06:31:08 PM 36.2597 -93.8575 92° East 263 303 13,800 3,100 Climbing Memphis Center
Thu 06:32:00 PM 36.3631 -93.5996 91° East  Level Estimated
Thu 06:32:08 PM 36.2619 -93.7803 88° East 233 268 16,800  Level Memphis Center
Thu 06:33:00 PM 36.3610 -93.4981 91° East  Level Estimated
Thu 06:33:08 PM 36.2556 -93.7053 96° East 227 261 18,900  Level Memphis Center
Thu 06:34:00 PM 36.3588 -93.3967 92° East  Level Estimated
Thu 06:34:08 PM 36.2578 -93.6206 88° East 222 255 20,300  Level Memphis Center
Thu 06:35:00 PM 36.3565 -93.2952 92° East  Level Estimated
Thu 06:35:08 PM 36.2603 -93.5253 88° East 245 282 21,700  Level Memphis Center
Thu 06:36:09 PM 36.2692 -93.4203 84° East 274 315 23,200 1,500 Climbing Memphis Center
Thu 06:37:08 PM 36.2758 -93.3150 85° East 293 337 24,700 1,513 Climbing Memphis Center
Thu 06:38:08 PM 36.2825 -93.2069 86° East 310 357 26,200 1,300 Climbing Memphis Center
Thu 06:39:08 PM 36.2744 -93.0986 95° East 310 357 27,300 1,050 Climbing Memphis Center
Thu 06:40:08 PM 36.2686 -92.9853 94° East 315 362 28,300 1,000 Climbing Memphis Center
Thu 06:41:08 PM 36.2628 -92.8692 94° East 325 374 29,300 1,050 Climbing Memphis Center
Thu 06:42:08 PM 36.2525 -92.7478 96° East 337 388 30,400 1,050 Climbing Memphis Center
Thu 06:43:08 PM 36.2464 -92.6267 94° East 344 396 31,400 950 Climbing Memphis Center
Thu 06:44:08 PM 36.2403 -92.5031 93° East 354 407 32,300 800 Climbing Memphis Center
Thu 06:45:08 PM 36.2319 -92.3767 95° East 354 407 33,000 350 Climbing Memphis Center
Thu 06:46:08 PM 36.2258 -92.2456 93° East 372 428 33,000  Level Memphis Center
Thu 06:47:08 PM 36.2153 -92.1036 95° East 390 449 33,000  Level Memphis Center
Thu 06:48:08 PM 36.2022 -91.9800 97° East 395 455 33,000  Level Memphis Center
Thu 06:49:08 PM 36.1958 -91.8383 93° East 406 467 33,000  Level Memphis Center
Thu 06:50:09 PM 36.1847 -91.6967 96° East 406 467 33,000  Level Memphis Center
Thu 06:51:08 PM 36.1758 -91.5525 94° East 411 473 33,000  Level Memphis Center
Thu 06:52:08 PM 36.1689 -91.4111 93° East 411 473 33,000  Level Memphis Center
Thu 06:53:08 PM 36.1553 -91.2644 97° East 411 473 33,000  Level Memphis Center
Thu 06:54:08 PM 36.1481 -91.1231 94° East 411 473 33,000  Level Memphis Center
Thu 06:55:08 PM 36.1383 -90.9814 95° East 411 473 33,000  Level Memphis Center
Thu 06:56:08 PM 36.1264 -90.8375 96° East 411 473 33,000  Level Memphis Center
Thu 06:57:08 PM 36.1164 -90.6986 95° East 411 473 33,000  Level Memphis Center
Thu 06:58:08 PM 36.1064 -90.5547 95° East 406 467 33,000  Level Memphis Center
Thu 06:59:08 PM 36.0939 -90.4136 96° East 406 467 33,000  Level Memphis Center
Thu 07:00:08 PM 36.0836 -90.2697 95° East 406 467 33,000  Level Memphis Center
Thu 07:01:08 PM 36.0728 -90.1283 95° East 406 467 33,000  Level Memphis Center
Thu 07:02:08 PM 36.0600 -89.9872 96° East 406 467 33,000  Level Memphis Center
Thu 07:03:08 PM 36.0492 -89.8461 95° East 406 467 33,000  Level Memphis Center
Thu 07:04:09 PM 36.0358 -89.7050 97° East 406 467 33,000  Level Memphis Center
Thu 07:05:08 PM 36.0225 -89.5614 97° East 406 467 33,000  Level Memphis Center
Thu 07:06:08 PM 36.0133 -89.4203 95° East 406 467 33,000  Level Memphis Center
Thu 07:07:08 PM 35.9994 -89.2769 97° East 406 467 33,000  Level Memphis Center
Thu 07:08:08 PM 35.9878 -89.1358 96° East 406 467 33,000  Level Memphis Center
Thu 07:09:08 PM 35.9758 -88.9950 96° East 406 467 33,000 -200 Level Memphis Center
Thu 07:10:08 PM 35.9658 -88.8542 95° East 406 467 32,600 -900 Descending Memphis Center
Thu 07:11:08 PM 35.9539 -88.7158 96° East 406 467 31,200 -1,450 Descending Memphis Center
Thu 07:12:08 PM 35.9414 -88.5750 96° East 406 467 29,700 -1,450 Descending Memphis Center
Thu 07:13:08 PM 35.9311 -88.4419 95° East 401 461 28,300 -1,488 Descending Memphis Center
Thu 07:14:09 PM 35.9164 -88.3117 98° East 396 456 26,700 -2,050 Descending Memphis Center
Thu 07:15:08 PM 35.9039 -88.1811 97° East 390 449 24,200 -2,471 Descending Memphis Center
Thu 07:16:08 PM 35.8933 -88.0561 96° East 379 436 21,800 -2,350 Descending Memphis Center
Thu 07:17:08 PM 35.8803 -87.9283 97° East 374 430 19,500 -2,300 Descending Memphis Center
Thu 07:18:08 PM 35.8675 -87.8083 97° East 363 418 17,200 -2,300 Descending Memphis Center
Thu 07:19:08 PM 35.8544 -87.6831 97° East 363 418 14,900 -2,300 Descending Memphis Center
Thu 07:20:08 PM 35.8458 -87.5708 95° East 346 398 12,600 -1,884 Descending Memphis Center
Thu 07:21:09 PM 35.8369 -87.4558 95° East 340 391 11,100 -800 Descending Memphis Center
Thu 07:22:08 PM 35.8739 -87.3519 66° East 321 369 11,000 -403 Descending Memphis Center
Thu 07:23:08 PM 35.9069 -87.2458 69° East 326 375 10,300 -1,000 Descending Memphis Center
Thu 07:24:08 PM 35.9247 -87.1347 79° East 314 361 9,000 -1,250 Descending Memphis Center
Thu 07:25:08 PM 35.9328 -87.0372 84° East 297 342 7,800 -1,200 Descending Memphis Center
Thu 07:26:08 PM 35.9383 -86.9419 86° East 285 328 6,600 -900 Descending Memphis Center
Thu 07:27:08 PM 35.9442 -86.8494 86° East 275 316 6,000 -793 Descending Memphis Center
Thu 07:28:09 PM 35.9500 -86.7569 86° East 275 316 5,000 -1,050 Descending Memphis Center
Thu 07:29:08 PM 35.9556 -86.6669 86° East 275 316 3,900 -1,109 Descending Memphis Center
Thu 07:30:08 PM 35.9717 -86.5817 77° East 267 307 2,800 -900 Descending Memphis Center
Thu 07:31:08 PM 36.0294 -86.5558 20° North 202 232 2,100 -650 Descending Memphis Center
Thu 07:32:08 PM 36.0492 -86.5242 52° Northeast 132 152 1,500 -650 Descending Memphis Center
Thu 07:33:08 PM 36.0242 -86.5203 173° South 59 68 800 -700 Descending Memphis Center

Login

Don't have an account? Register now (free) for customized features, flight alerts, and more!